Time;durP1;ratioP1;P1;durP2;ratioP2;P2;SDS_P1;SDS_P2;PMS_P1;PMS_P2;Temp;Humidity;BMP_temperature;BMP_pressure;BME280_temperature;BME280_humidity;BME280_pressure;Samples;Min_cycle;Max_cycle;Signal;HPM_P1;HPM_P2
2022/09/07 00:01:24;;;;;;;9.38;6.70;;;;;;;-148.88;67.03;74566.81;5032524;28;20029;-77
2022/09/07 00:03:54;;;;;;;9.00;6.50;;;;;;;-148.88;67.55;74574.94;5032537;28;20053;-78
2022/09/07 00:06:19;;;;;;;7.68;6.43;;;;;;;-148.88;67.50;74583.06;5033484;28;20118;-78
2022/09/07 00:08:44;;;;;;;10.13;6.45;;;;;;;-148.88;67.38;74583.06;5035627;28;20105;-77
2022/09/07 00:11:16;;;;;;;9.90;7.10;;;;;;;-148.88;67.45;74585.09;5034647;28;20034;-78
2022/09/07 00:13:43;;;;;;;10.18;6.72;;;;;;;-148.88;68.35;74603.34;5033607;28;20025;-78
2022/09/07 00:16:11;;;;;;;9.85;6.55;;;;;;;-148.88;68.95;74605.38;5034808;28;20021;-78
2022/09/07 00:18:37;;;;;;;10.85;6.57;;;;;;;-148.88;68.82;74597.25;5045341;28;20082;-77
2022/09/07 00:21:05;;;;;;;10.93;6.88;;;;;;;-148.88;68.27;74587.13;5049090;28;20022;-77
2022/09/07 00:23:32;;;;;;;13.05;7.03;;;;;;;-148.88;68.09;74579.00;5034703;28;20467;-78
2022/09/07 00:26:00;;;;;;;11.15;7.60;;;;;;;-148.88;68.29;74581.03;5035030;28;20045;-77
2022/09/07 00:28:25;;;;;;;9.32;6.97;;;;;;;-148.88;68.29;74572.91;5034533;28;20083;-78
2022/09/07 00:30:50;;;;;;;9.60;7.05;;;;;;;-148.88;68.63;74579.00;5034229;28;20025;-78
2022/09/07 00:33:15;;;;;;;11.85;6.80;;;;;;;-148.88;68.32;74574.94;5032672;28;20029;-77
2022/09/07 00:35:41;;;;;;;11.32;6.75;;;;;;;-148.88;68.30;74570.88;5032351;28;20013;-77
2022/09/07 00:38:07;;;;;;;9.15;6.75;;;;;;;-148.88;68.58;74566.81;5032207;28;20029;-77
2022/09/07 00:40:33;;;;;;;9.88;7.07;;;;;;;-148.88;68.76;74574.94;5032278;28;20144;-77
2022/09/07 00:42:59;;;;;;;10.23;6.60;;;;;;;-148.88;68.74;74566.81;5032234;28;20028;-77
2022/09/07 00:45:24;;;;;;;9.52;6.85;;;;;;;-148.88;68.74;74564.78;5034216;28;20021;-77
2022/09/07 00:47:58;;;;;;;10.52;7.20;;;;;;;-148.88;69.41;74570.88;5034919;28;20041;-77
2022/09/07 00:50:31;;;;;;;8.32;6.57;;;;;;;-148.88;69.13;74568.84;5033247;28;20091;-77
2022/09/07 00:53:02;;;;;;;10.88;7.13;;;;;;;-148.88;69.43;74566.81;5034986;28;20039;-77
2022/09/07 00:55:30;;;;;;;12.27;6.85;;;;;;;-148.88;68.90;74558.69;5038293;28;20021;-77
2022/09/07 00:57:56;;;;;;;12.50;7.15;;;;;;;-148.88;69.78;74570.88;5038541;28;20025;-77
2022/09/07 01:00:22;;;;;;;8.15;7.28;;;;;;;-148.88;69.92;74570.88;5036754;28;20034;-77
2022/09/07 01:02:50;;;;;;;8.80;7.25;;;;;;;-148.88;69.30;74568.84;5038031;28;20472;-77
2022/09/07 01:05:38;;;;;;;7.97;6.78;;;;;;;-148.88;69.83;74581.03;5038273;28;20026;-77
2022/09/07 01:08:04;;;;;;;10.43;6.93;;;;;;;-148.88;70.21;74583.06;5037648;28;20025;-77
2022/09/07 01:10:30;;;;;;;10.90;7.22;;;;;;;-148.88;70.94;74591.19;5037701;28;20021;-77
2022/09/07 01:12:56;;;;;;;9.48;7.43;;;;;;;-148.88;70.99;74591.19;5037679;28;20093;-77
2022/09/07 01:15:30;;;;;;;10.38;7.28;;;;;;;-148.88;72.21;74613.50;5038019;28;20018;-77
2022/09/07 01:18:06;;;;;;;;;;;;;;;-148.88;72.52;74607.41;5038064;28;20115;-77
2022/09/07 01:20:59;;;;;;;9.85;6.93;;;;;;;-148.88;71.87;74591.19;5035795;28;19909;-77
2022/09/07 01:23:58;;;;;;;10.98;7.28;;;;;;;-148.88;71.55;74593.22;5036236;28;20116;-77
2022/09/07 01:26:58;;;;;;;9.93;6.70;;;;;;;-148.88;71.25;74609.44;5037809;28;20064;-77
2022/09/07 01:29:51;;;;;;;8.30;6.35;;;;;;;-148.88;71.59;74603.34;5037794;28;20025;-77
2022/09/07 01:32:34;;;;;;;9.98;6.88;;;;;;;-148.88;71.67;74609.44;5037719;28;20017;-78
2022/09/07 01:35:03;;;;;;;9.40;7.22;;;;;;;-148.88;72.11;74617.56;5038022;28;20041;-77
2022/09/07 01:37:37;;;;;;;8.02;7.15;;;;;;;-148.88;71.43;74625.69;5036521;28;20460;-77
2022/09/07 01:40:10;;;;;;;9.35;6.82;;;;;;;-148.88;71.76;74648.03;5037778;28;20026;-79
2022/09/07 01:42:47;;;;;;;11.82;7.60;;;;;;;-148.88;72.21;74680.53;5038313;28;20443;-77
2022/09/07 01:45:17;;;;;;;9.60;8.23;;;;;;;-148.88;72.13;74690.69;5037394;28;20101;-77
2022/09/07 01:47:47;;;;;;;9.43;8.27;;;;;;;-148.88;72.22;74702.84;5037367;28;20056;-77
2022/09/07 01:50:34;;;;;;;8.35;6.97;;;;;;;-148.88;72.74;74706.91;5036894;28;20033;-77
2022/09/07 01:53:07;;;;;;;8.73;7.32;;;;;;;-148.88;72.95;74710.97;5035449;28;20032;-77
2022/09/07 01:55:42;;;;;;;6.72;5.32;;;;;;;-148.88;71.55;74698.78;5036944;28;20021;-77
2022/09/07 01:58:20;;;;;;;8.55;4.40;;;;;;;-148.88;71.38;74708.94;5036538;28;20041;-77
2022/09/07 02:00:52;;;;;;;5.82;4.03;;;;;;;-148.88;71.09;74704.88;5035348;28;20029;-77
2022/09/07 02:03:23;;;;;;;7.35;3.65;;;;;;;-148.88;71.67;74702.84;5036231;28;20031;-77
2022/09/07 02:05:59;;;;;;;5.75;3.35;;;;;;;-148.88;71.15;74704.88;5035831;28;20132;-77
2022/09/07 02:08:30;;;;;;;6.40;3.53;;;;;;;-148.88;71.15;74704.88;5034877;28;20060;-77
2022/09/07 02:11:02;;;;;;;6.63;3.58;;;;;;;-148.88;71.00;74700.84;5036744;28;20567;-78
2022/09/07 02:13:34;;;;;;;6.60;3.00;;;;;;;-148.88;70.72;74700.84;5036477;28;20056;-77
2022/09/07 02:16:01;;;;;;;5.55;3.35;;;;;;;-148.88;70.17;74688.66;5034875;28;20017;-77
2022/09/07 02:18:32;;;;;;;7.00;3.03;;;;;;;-148.88;70.39;74684.59;5035529;28;20542;-77
2022/09/07 02:21:00;;;;;;;7.32;3.40;;;;;;;-148.88;70.66;74672.41;5036365;28;20025;-77
2022/09/07 02:23:29;;;;;;;6.30;3.10;;;;;;;-148.88;71.85;74672.41;5036299;28;20098;-77
2022/09/07 02:26:09;;;;;;;7.75;3.80;;;;;;;-148.88;74.23;74688.66;5034968;28;20045;-77
2022/09/07 02:28:37;;;;;;;7.35;3.83;;;;;;;-148.88;75.94;74688.66;5035110;28;20495;-77
2022/09/07 02:31:03;;;;;;;4.93;3.90;;;;;;;-148.88;76.03;74672.41;5034204;28;20036;-77
2022/09/07 02:33:29;;;;;;;4.75;3.75;;;;;;;-148.88;78.07;74684.59;5034525;28;20412;-77
2022/09/07 02:35:55;;;;;;;10.23;4.95;;;;;;;-148.88;81.43;74729.25;5034675;28;20066;-77
2022/09/07 02:38:21;;;;;;;7.70;4.53;;;;;;;-148.88;83.26;74725.19;5036336;28;20036;-77
2022/09/07 02:40:55;;;;;;;6.72;5.40;;;;;;;-148.88;84.73;74737.38;5036585;28;20092;-78
2022/09/07 02:43:22;;;;;;;7.13;5.78;;;;;;;-148.88;84.75;74745.50;5037159;28;20495;-77
2022/09/07 02:46:05;;;;;;;11.30;6.43;;;;;;;-148.88;86.03;74765.81;5036131;28;20164;-78
2022/09/07 02:48:41;;;;;;;7.30;5.75;;;;;;;-148.88;86.33;74769.88;5037909;28;20033;-78
2022/09/07 02:51:55;;;;;;;9.20;6.00;;;;;;;-148.88;87.65;74794.25;5047532;28;20029;-78
2022/09/07 02:54:31;;;;;;;10.05;6.15;;;;;;;-148.88;86.89;74786.13;5035071;28;20033;-78
2022/09/07 02:57:10;;;;;;;8.45;6.65;;;;;;;-148.88;87.35;74784.09;5035987;28;20025;-78
2022/09/07 02:59:47;;;;;;;7.88;6.63;;;;;;;-148.88;88.14;74810.50;5037623;28;20029;-78
2022/09/07 03:02:25;;;;;;;10.38;6.65;;;;;;;-148.88;87.99;74808.47;5037848;28;20053;-78
2022/09/07 03:05:05;;;;;;;10.32;6.85;;;;;;;-148.88;89.41;74814.53;5035752;28;20111;-78
2022/09/07 03:08:03;;;;;;;10.13;7.30;;;;;;;-148.88;89.56;74810.50;5037825;28;20189;-78
2022/09/07 03:10:29;;;;;;;8.63;7.10;;;;;;;-148.88;90.00;74816.56;5040040;28;20021;-78
2022/09/07 03:12:55;;;;;;;13.27;7.43;;;;;;;-148.88;90.34;74814.53;5039630;28;20025;-78
2022/09/07 03:15:22;;;;;;;9.05;6.85;;;;;;;-148.88;89.90;74816.56;5036725;28;20478;-78
2022/09/07 03:17:48;;;;;;;12.27;7.20;;;;;;;-148.88;90.26;74810.50;5035353;28;20029;-78
2022/09/07 03:20:15;;;;;;;9.50;7.35;;;;;;;-148.88;90.32;74826.72;5037413;28;20386;-78
2022/09/07 03:22:41;;;;;;;9.13;6.63;;;;;;;-148.88;90.25;74818.59;5039629;28;20041;-78
2022/09/07 03:25:07;;;;;;;8.02;6.40;;;;;;;-148.88;90.19;74810.50;5039743;28;20022;-78
2022/09/07 03:27:33;;;;;;;7.68;6.28;;;;;;;-148.88;89.92;74810.50;5038156;28;20048;-78
2022/09/07 03:29:59;;;;;;;9.15;6.63;;;;;;;-148.88;89.84;74826.72;5035788;28;20025;-77
2022/09/07 03:32:28;;;;;;;9.00;6.53;;;;;;;-148.88;89.88;74818.59;5034245;28;20029;-77
2022/09/07 03:34:53;;;;;;;8.13;6.10;;;;;;;-148.88;90.00;74818.59;5034995;28;20099;-78
2022/09/07 03:37:18;;;;;;;8.85;6.78;;;;;;;-148.88;90.56;74830.78;5039085;28;20025;-78
2022/09/07 03:39:44;;;;;;;9.60;6.65;;;;;;;-148.88;90.75;74814.53;5039508;28;20036;-81
2022/09/07 03:42:09;;;;;;;10.90;6.80;;;;;;;-148.88;90.58;74806.44;5044913;28;20025;-78
2022/09/07 03:44:34;;;;;;;6.90;6.13;;;;;;;-148.88;90.78;74802.38;5043735;28;20036;-79
2022/09/07 03:46:59;;;;;;;10.23;6.78;;;;;;;-148.88;91.12;74814.53;5043885;28;20057;-78
2022/09/07 03:49:25;;;;;;;9.80;6.15;;;;;;;-148.88;91.41;74822.66;5043055;28;20032;-78
2022/09/07 03:51:50;;;;;;;6.78;6.07;;;;;;;-148.88;91.78;74808.47;5039899;28;20048;-78
2022/09/07 03:54:18;;;;;;;10.63;6.38;;;;;;;-148.88;92.46;74802.38;5041601;28;20104;-78
2022/09/07 03:56:43;;;;;;;9.63;6.72;;;;;;;-148.88;93.17;74788.16;5041878;28;20039;-78
2022/09/07 03:59:08;;;;;;;9.80;6.80;;;;;;;-148.88;94.55;74798.31;5039991;28;20112;-78
2022/09/07 04:01:34;;;;;;;9.35;7.05;;;;;;;-148.88;95.97;74782.06;5042861;28;20033;-78
2022/09/07 04:04:01;;;;;;;12.70;8.00;;;;;;;-148.88;97.24;74784.09;5040869;28;20037;-78
2022/09/07 04:06:27;;;;;;;12.77;7.82;;;;;;;-148.88;97.56;74788.16;5037225;28;20021;-76
2022/09/07 04:08:54;;;;;;;10.60;8.32;;;;;;;-148.88;98.24;74806.44;5033618;28;20026;-76
2022/09/07 04:11:20;;;;;;;11.35;8.50;;;;;;;-148.88;98.32;74798.31;5033867;28;20036;-76
2022/09/07 04:13:45;;;;;;;10.43;7.30;;;;;;;-148.88;97.37;74806.44;5032919;28;20029;-76
2022/09/07 04:16:21;;;;;;;10.85;8.27;;;;;;;-148.88;98.68;74798.31;5032949;28;20034;-77
2022/09/07 04:18:49;;;;;;;10.52;7.35;;;;;;;-148.88;98.82;74790.19;5033321;28;20037;-77
2022/09/07 04:21:15;;;;;;;7.80;6.88;;;;;;;-148.88;98.31;74782.06;5033977;28;20458;-76
2022/09/07 04:23:41;;;;;;;10.43;8.15;;;;;;;-148.88;98.75;74780.03;5032873;28;20082;-76
2022/09/07 04:26:14;;;;;;;12.43;8.02;;;;;;;-148.88;98.31;74790.19;5033044;28;20022;-77
2022/09/07 04:28:39;;;;;;;9.75;7.60;;;;;;;-148.88;97.50;74786.13;5034783;28;20024;-77
2022/09/07 04:31:05;;;;;;;9.52;8.32;;;;;;;-148.88;97.63;74792.22;5036980;28;20017;-77
2022/09/07 04:33:31;;;;;;;9.38;7.55;;;;;;;-148.88;97.53;74794.25;5036946;28;20056;-77
2022/09/07 04:35:59;;;;;;;10.70;8.07;;;;;;;-148.88;97.37;74830.78;5036848;28;20037;-77
2022/09/07 04:38:25;;;;;;;10.13;8.30;;;;;;;-148.88;98.04;74840.94;5037657;28;20028;-77
2022/09/07 04:41:01;;;;;;;10.48;8.52;;;;;;;-148.88;98.32;74838.91;5037649;28;20033;-77
2022/09/07 04:43:27;;;;;;;11.82;8.43;;;;;;;-148.88;98.57;74834.84;5037241;28;20025;-77
2022/09/07 04:45:53;;;;;;;12.18;8.02;;;;;;;-148.88;98.60;74838.91;5036344;28;20023;-76
2022/09/07 04:48:18;;;;;;;11.30;7.90;;;;;;;-148.88;98.93;74845.00;5037478;28;20025;-77
2022/09/07 04:50:43;;;;;;;10.25;7.90;;;;;;;-148.88;99.27;74859.22;5036755;28;20029;-77
2022/09/07 04:53:09;;;;;;;12.60;8.05;;;;;;;-148.88;100.00;74859.22;5036994;28;20030;-76
2022/09/07 04:55:34;;;;;;;11.43;7.85;;;;;;;-148.88;99.80;74869.38;5038042;28;20100;-77
2022/09/07 04:57:59;;;;;;;10.18;7.35;;;;;;;-148.88;99.94;74873.44;5038935;28;20083;-77
2022/09/07 05:00:25;;;;;;;11.35;7.55;;;;;;;-148.88;99.67;74871.41;5038260;28;20045;-77
2022/09/07 05:02:51;;;;;;;9.57;7.25;;;;;;;-148.88;99.83;74871.41;5036726;28;20025;-77
2022/09/07 05:05:16;;;;;;;9.55;6.63;;;;;;;-148.88;99.99;74871.41;5038464;28;20074;-77
2022/09/07 05:07:41;;;;;;;11.15;7.03;;;;;;;-148.88;99.62;74875.47;5038040;28;20112;-77
2022/09/07 05:10:07;;;;;;;9.07;6.88;;;;;;;-148.88;99.55;74871.41;5038007;28;20082;-77
2022/09/07 05:12:32;;;;;;;9.63;6.10;;;;;;;-148.88;99.62;74871.41;5038673;28;20025;-78
2022/09/07 05:14:58;;;;;;;9.23;6.22;;;;;;;-148.88;99.81;74863.28;5041745;28;20100;-78
2022/09/07 05:17:23;;;;;;;10.07;6.78;;;;;;;-148.88;99.31;74857.19;5039720;28;20399;-78
2022/09/07 05:19:48;;;;;;;9.70;6.65;;;;;;;-148.88;98.72;74861.25;5038426;28;20022;-78
2022/09/07 05:22:13;;;;;;;7.82;6.13;;;;;;;-148.88;98.79;74855.16;5039760;28;20017;-78
2022/09/07 05:24:39;;;;;;;8.73;6.45;;;;;;;-148.88;98.92;74842.97;5037152;28;20021;-77
2022/09/07 05:27:04;;;;;;;9.50;6.80;;;;;;;-148.88;98.89;74851.09;5036880;28;20044;-78
2022/09/07 05:29:29;;;;;;;12.65;7.13;;;;;;;-148.88;99.38;74840.94;5035639;28;20026;-78
2022/09/07 05:31:55;;;;;;;9.38;7.13;;;;;;;-148.88;99.13;74847.03;5037053;28;20021;-78
2022/09/07 05:34:21;;;;;;;9.18;6.75;;;;;;;-148.88;99.08;74840.94;5036940;28;20021;-79
2022/09/07 05:36:46;;;;;;;10.15;7.15;;;;;;;-148.88;98.66;74828.75;5039800;28;20033;-79
2022/09/07 05:39:11;;;;;;;9.27;6.78;;;;;;;-148.88;98.62;74818.59;5039428;28;20029;-79
2022/09/07 05:41:37;;;;;;;11.27;6.47;;;;;;;-148.88;98.43;74822.66;5039738;28;20025;-79
2022/09/07 05:44:03;;;;;;;12.57;7.78;;;;;;;-148.88;98.66;74814.53;5039531;28;20025;-79
2022/09/07 05:46:28;;;;;;;9.70;6.45;;;;;;;-148.88;98.82;74816.56;5039830;28;20025;-78
2022/09/07 05:48:54;;;;;;;8.32;6.55;;;;;;;-148.88;98.36;74816.56;5039357;28;20021;-78
2022/09/07 05:51:19;;;;;;;9.73;6.82;;;;;;;-148.88;97.99;74818.59;5038280;28;20446;-79
2022/09/07 05:53:46;;;;;;;8.15;6.60;;;;;;;-148.88;98.04;74808.47;5040182;28;20538;-78
2022/09/07 05:56:12;;;;;;;7.80;6.60;;;;;;;-148.88;97.75;74810.50;5038503;28;20033;-78
2022/09/07 05:58:37;;;;;;;9.23;6.80;;;;;;;-148.88;97.77;74810.50;5038773;28;20025;-79
2022/09/07 06:01:06;;;;;;;12.27;7.40;;;;;;;-148.88;97.95;74814.53;5038286;28;20025;-78
2022/09/07 06:03:35;;;;;;;10.30;7.55;;;;;;;-148.88;97.68;74818.59;5035686;28;20032;-78
2022/09/07 06:06:06;;;;;;;9.02;7.15;;;;;;;-148.88;97.72;74812.53;5034209;28;20021;-78
2022/09/07 06:08:34;;;;;;;8.55;6.57;;;;;;;-148.88;97.78;74812.53;5035239;28;20037;-78
2022/09/07 06:11:06;;;;;;;8.68;6.32;;;;;;;-148.88;97.88;74810.50;5035736;28;20509;-78
2022/09/07 06:13:32;;;;;;;9.93;6.73;;;;;;;-148.88;97.83;74814.53;5037018;28;20036;-79
2022/09/07 06:16:06;;;;;;;12.55;6.90;;;;;;;-148.88;97.56;74810.50;5039086;28;20022;-79
2022/09/07 06:18:34;;;;;;;11.40;7.72;;;;;;;-148.88;97.62;74812.53;5039565;28;20025;-78
2022/09/07 06:21:03;;;;;;;9.20;7.18;;;;;;;-148.88;97.63;74804.41;5039089;28;20030;-79
2022/09/07 06:23:33;;;;;;;10.80;7.50;;;;;;;-148.88;97.87;74806.44;5039235;28;20118;-79
2022/09/07 06:25:59;;;;;;;11.40;7.55;;;;;;;-148.88;98.12;74802.38;5038355;28;20021;-77
2022/09/07 06:28:29;;;;;;;9.68;7.45;;;;;;;-148.88;98.32;74802.38;5035395;28;20030;-78
2022/09/07 06:31:06;;;;;;;11.57;7.82;;;;;;;-148.88;98.53;74808.47;5036016;28;20365;-78
2022/09/07 06:33:32;;;;;;;11.05;7.65;;;;;;;-148.88;99.13;74802.38;5036959;28;20065;-78
2022/09/07 06:36:00;;;;;;;13.55;9.40;;;;;;;-148.88;99.17;74800.34;5036520;28;20423;-77
2022/09/07 06:38:29;;;;;;;11.30;8.30;;;;;;;-148.88;98.60;74790.19;5036061;28;20079;-77
2022/09/07 06:41:03;;;;;;;11.80;8.02;;;;;;;-148.88;98.63;74790.19;5036142;28;20391;-76
2022/09/07 06:43:29;;;;;;;12.45;8.80;;;;;;;-148.88;98.24;74792.22;5035416;28;20029;-77
2022/09/07 06:45:54;;;;;;;12.82;8.40;;;;;;;-148.88;97.97;74798.31;5035371;28;20105;-77
2022/09/07 06:48:20;;;;;;;11.25;7.75;;;;;;;-148.88;97.78;74796.28;5035434;28;20018;-77
2022/09/07 06:51:06;;;;;;;11.15;7.93;;;;;;;-148.88;98.28;74782.06;5034261;28;20033;-77
2022/09/07 06:53:36;;;;;;;11.32;8.55;;;;;;;-148.88;98.55;74773.94;5034365;28;20507;-76
2022/09/07 06:56:05;;;;;;;10.70;8.25;;;;;;;-148.88;97.59;74782.06;5034045;28;20021;-77
2022/09/07 06:58:31;;;;;;;12.80;8.10;;;;;;;-148.88;97.86;74778.00;5034526;28;20029;-77
2022/09/07 07:00:57;;;;;;;18.90;8.65;;;;;;;-148.88;98.02;74765.81;5034748;28;20025;-77
2022/09/07 07:03:22;;;;;;;11.60;8.45;;;;;;;-148.88;97.90;74763.78;5033349;28;20142;-77
2022/09/07 07:05:55;;;;;;;11.13;7.90;;;;;;;-148.88;98.01;74753.63;5033434;28;20013;-77
2022/09/07 07:08:22;;;;;;;12.95;8.30;;;;;;;-148.88;97.83;74751.59;5034596;28;20021;-77
2022/09/07 07:10:49;;;;;;;10.77;7.78;;;;;;;-148.88;97.34;74745.50;5034870;28;20148;-77
2022/09/07 07:13:15;;;;;;;10.57;8.48;;;;;;;-148.88;97.27;74745.50;5034624;28;20445;-77
2022/09/07 07:15:41;;;;;;;11.23;8.25;;;;;;;-148.88;96.83;74745.50;5035117;28;20373;-77
2022/09/07 07:18:07;;;;;;;9.85;8.10;;;;;;;-148.88;96.80;74743.47;5036416;28;20032;-77
2022/09/07 07:20:34;;;;;;;11.88;7.90;;;;;;;-148.88;96.35;74739.41;5036197;28;20403;-77
2022/09/07 07:23:00;;;;;;;11.75;7.85;;;;;;;-148.88;96.76;74725.19;5034832;28;20045;-77
2022/09/07 07:25:25;;;;;;;11.05;7.88;;;;;;;-148.88;96.52;74725.19;5037121;28;20033;-77
2022/09/07 07:27:50;;;;;;;8.50;7.05;;;;;;;-148.88;96.62;74713.00;5037935;28;20025;-77
2022/09/07 07:30:18;;;;;;;17.15;11.50;;;;;;;-148.88;96.00;74708.94;5035151;28;20060;-77
2022/09/07 07:32:44;;;;;;;8.75;6.70;;;;;;;-148.88;95.03;74696.78;5033185;28;20056;-76
2022/09/07 07:35:10;;;;;;;9.05;6.50;;;;;;;-148.88;95.04;74684.59;5035148;28;20472;-77
2022/09/07 07:37:36;;;;;;;8.48;6.00;;;;;;;-148.88;94.21;74668.34;5037292;28;20029;-77
2022/09/07 07:40:04;;;;;;;9.85;6.10;;;;;;;-148.88;93.85;74660.22;5037679;28;20033;-77
2022/09/07 07:42:30;;;;;;;9.43;5.80;;;;;;;-148.88;93.33;74643.97;5036877;28;20034;-77
2022/09/07 07:44:55;;;;;;;9.05;4.78;;;;;;;-148.88;90.84;74621.63;5036080;28;20025;-77
2022/09/07 07:47:20;;;;;;;11.02;5.05;;;;;;;-148.88;88.64;74617.56;5036150;28;20033;-77
2022/09/07 07:49:45;;;;;;;7.22;4.75;;;;;;;-148.88;88.75;74609.44;5035955;28;20021;-77
2022/09/07 07:52:11;;;;;;;8.13;4.05;;;;;;;-148.88;86.54;74607.41;5035589;28;20033;-78
2022/09/07 07:54:36;;;;;;;10.10;4.35;;;;;;;-148.88;86.45;74597.25;5037321;28;20032;-77
2022/09/07 07:57:02;;;;;;;5.68;4.65;;;;;;;-148.88;85.86;74579.00;5038492;28;20403;-77
2022/09/07 07:59:27;;;;;;;9.93;4.97;;;;;;;-148.88;87.03;74558.69;5038090;28;20039;-77
2022/09/07 08:01:52;;;;;;;7.90;5.43;;;;;;;-148.88;85.96;74542.44;5038611;28;20041;-77
2022/09/07 08:04:18;;;;;;;8.23;4.97;;;;;;;-148.88;85.84;74526.19;5038298;28;20029;-77
2022/09/07 08:06:43;;;;;;;9.45;5.00;;;;;;;-148.88;83.77;74505.88;5037694;28;20072;-77
2022/09/07 08:09:10;;;;;;;7.30;4.25;;;;;;;-148.88;82.28;74505.88;5036417;28;20028;-77
2022/09/07 08:11:35;;;;;;;8.07;3.97;;;;;;;-148.88;80.43;74516.03;5035164;28;20501;-77
2022/09/07 08:14:04;;;;;;;6.03;3.92;;;;;;;-148.88;81.25;74514.00;5034705;28;20100;-77
2022/09/07 08:16:30;;;;;;;9.55;4.07;;;;;;;-148.88;81.73;74503.84;5035070;28;20037;-77
2022/09/07 08:18:56;;;;;;;8.95;4.00;;;;;;;-148.88;81.56;74501.81;5036872;28;20030;-77
2022/09/07 08:21:21;;;;;;;5.82;3.58;;;;;;;-148.88;81.41;74499.81;5033758;28;20074;-77
2022/09/07 08:23:46;;;;;;;5.93;3.92;;;;;;;-148.88;81.90;74485.59;5035072;28;20060;-78
2022/09/07 08:26:12;;;;;;;7.20;4.38;;;;;;;-148.88;81.35;74479.50;5035150;28;20059;-78
2022/09/07 08:28:39;;;;;;;5.90;4.25;;;;;;;-148.88;80.19;74495.75;5034048;28;20037;-78
2022/09/07 08:31:10;;;;;;;6.50;3.97;;;;;;;-148.88;81.37;74485.59;5035771;28;20029;-77
2022/09/07 08:33:37;;;;;;;7.43;3.85;;;;;;;-148.88;80.49;74481.53;5037023;28;20025;-77
2022/09/07 08:36:08;;;;;;;6.68;3.47;;;;;;;-148.88;80.29;74481.53;5037599;28;20061;-77
2022/09/07 08:38:35;;;;;;;5.97;3.42;;;;;;;-148.88;79.94;74481.53;5037068;28;20084;-77
2022/09/07 08:41:02;;;;;;;4.97;3.20;;;;;;;-148.88;80.46;74469.34;5037168;28;20100;-77
2022/09/07 08:43:28;;;;;;;6.00;2.92;;;;;;;-148.88;79.34;74438.88;5038923;28;20535;-77
2022/09/07 08:46:02;;;;;;;5.13;2.35;;;;;;;-148.88;78.68;74432.78;5039680;28;20056;-77
2022/09/07 08:48:31;;;;;;;4.40;2.10;;;;;;;-148.88;76.16;74424.66;5039105;28;20026;-78
2022/09/07 08:51:05;;;;;;;6.50;2.58;;;;;;;-148.88;75.11;74408.44;5038176;28;20036;-78
2022/09/07 08:53:31;;;;;;;7.70;2.70;;;;;;;-148.88;74.66;74384.06;5038410;28;20025;-78
2022/09/07 08:55:58;;;;;;;5.45;2.70;;;;;;;-148.88;74.68;74343.44;5038435;28;20022;-78
2022/09/07 08:58:33;;;;;;;7.97;2.78;;;;;;;-148.88;73.10;74315.03;5039409;28;20029;-78
2022/09/07 09:00:59;;;;;;;4.53;2.80;;;;;;;-148.88;73.62;74310.97;5040370;28;20033;-78
2022/09/07 09:03:27;;;;;;;6.15;2.90;;;;;;;-148.88;72.82;74284.56;5038472;28;20036;-78
2022/09/07 09:06:06;;;;;;;4.78;2.75;;;;;;;-148.88;71.18;74286.59;5039109;28;20021;-78
2022/09/07 09:08:55;;;;;;;3.42;2.20;;;;;;;-148.88;70.96;74274.41;5036136;28;20029;-77
2022/09/07 09:11:39;;;;;;;3.95;2.72;;;;;;;-148.88;70.02;74294.72;5026022;28;20022;-78
2022/09/07 09:14:11;;;;;;;4.82;2.90;;;;;;;-148.88;70.02;74294.72;5037026;28;20025;-78
2022/09/07 09:16:44;;;;;;;3.95;2.47;;;;;;;-148.88;70.07;74290.66;5040618;28;20377;-78
2022/09/07 09:19:53;;;;;;;5.22;2.58;;;;;;;-148.88;70.03;74294.72;5041381;28;20365;-78
2022/09/07 09:22:20;;;;;;;6.28;2.30;;;;;;;-148.88;69.98;74294.72;5040676;28;20041;-78
2022/09/07 09:24:55;;;;;;;5.10;2.45;;;;;;;-148.88;71.25;74284.56;5041287;28;20076;-78
2022/09/07 09:27:21;;;;;;;4.80;2.40;;;;;;;-148.88;70.20;74284.56;5039636;28;20087;-78
2022/09/07 09:29:48;;;;;;;4.88;2.42;;;;;;;-148.88;70.48;74278.47;5039718;28;20476;-78
2022/09/07 09:32:33;;;;;;;3.88;1.60;;;;;;;-148.88;69.59;74288.63;5040501;28;20091;-78
2022/09/07 09:35:11;;;;;;;5.47;1.60;;;;;;;-148.88;68.96;74315.03;5039564;28;20423;-78
2022/09/07 09:37:38;;;;;;;2.38;1.77;;;;;;;-148.88;68.98;74302.84;5040273;28;20032;-78
2022/09/07 09:40:06;;;;;;;4.72;2.08;;;;;;;-148.88;68.54;74325.19;5040346;28;20022;-78
2022/09/07 09:42:33;;;;;;;4.15;2.20;;;;;;;-148.88;68.65;74323.16;5042404;28;20457;-78
2022/09/07 09:45:26;;;;;;;2.63;1.90;;;;;;;-148.88;68.81;74341.41;5040348;28;20017;-78
2022/09/07 09:47:53;;;;;;;5.45;2.03;;;;;;;-148.88;70.50;74325.19;5042934;28;20033;-78
2022/09/07 09:50:35;;;;;;;4.15;2.00;;;;;;;-148.88;69.15;74310.97;5024015;28;20064;-77
2022/09/07 09:53:01;;;;;;;4.32;2.00;;;;;;;-148.88;68.76;74274.41;5023647;28;20061;-78
2022/09/07 09:55:36;;;;;;;6.18;2.35;;;;;;;-148.88;66.92;74229.75;5022702;28;20021;-77
2022/09/07 09:58:04;;;;;;;5.13;2.70;;;;;;;-148.88;66.74;74205.38;5021919;28;20089;-78
2022/09/07 10:00:31;;;;;;;5.82;2.53;;;;;;;-148.88;65.57;74170.84;5025644;23;20052;-84
2022/09/07 10:03:18;;;;;;;4.45;2.50;;;;;;;-148.88;65.02;74170.84;5013727;28;20034;-83
2022/09/07 10:05:54;;;;;;;4.38;2.33;;;;;;;-148.88;65.79;74178.97;5015046;28;20037;-85
2022/09/07 10:08:27;;;;;;;5.13;2.20;;;;;;;-148.88;65.86;74172.88;5013832;28;20108;-86
2022/09/07 10:11:05;;;;;;;6.68;2.78;;;;;;;-148.88;65.72;74201.31;5015382;28;20025;-87
2022/09/07 10:13:34;;;;;;;4.90;2.55;;;;;;;-148.88;66.38;74241.94;5051582;22;20168;-83
2022/09/07 10:16:03;;;;;;;3.88;2.25;;;;;;;-148.88;66.21;74270.34;5034474;28;20021;-84
2022/09/07 10:18:58;;;;;;;2.88;1.73;;;;;;;-148.88;67.08;74298.78;5034640;28;20017;-84
2022/09/07 10:21:29;;;;;;;3.65;1.90;;;;;;;-148.88;63.60;74319.09;5034586;28;20067;-85
2022/09/07 10:24:03;;;;;;;3.35;1.75;;;;;;;-148.88;62.22;74310.97;5035494;28;20124;-86
2022/09/07 10:26:32;;;;;;;3.30;1.90;;;;;;;-148.88;63.39;74319.09;5034362;28;20026;-85
2022/09/07 10:29:09;;;;;;;4.07;1.60;;;;;;;-148.88;62.97;74313.00;5034339;28;20029;-86
2022/09/07 10:31:44;;;;;;;4.75;2.38;;;;;;;-148.88;64.33;74304.88;5033127;28;20326;-85
2022/09/07 10:34:23;;;;;;;3.25;2.25;;;;;;;-148.88;63.98;74262.22;5034075;28;20120;-85
2022/09/07 10:37:02;;;;;;;3.60;2.58;;;;;;;-148.88;63.41;74221.63;5034297;28;20055;-86
2022/09/07 10:39:41;;;;;;;5.25;2.90;;;;;;;-148.88;63.80;74241.94;5034192;28;20021;-87
2022/09/07 10:42:28;;;;;;;4.20;2.60;;;;;;;-148.88;62.58;74217.56;5034096;28;20460;-87
2022/09/07 10:45:03;;;;;;;3.72;3.05;;;;;;;-148.88;61.44;74219.59;5034360;28;20033;-86
2022/09/07 10:48:03;;;;;;;5.00;3.15;;;;;;;-148.88;60.95;74189.13;5032843;28;20021;-87
2022/09/07 10:50:45;;;;;;;5.68;3.00;;;;;;;-148.88;61.76;74176.94;5032738;28;20031;-85
2022/09/07 10:53:27;;;;;;;4.80;3.33;;;;;;;-148.88;60.33;74140.41;5033675;28;20525;-85
2022/09/07 10:56:23;;;;;;;4.00;3.60;;;;;;;-148.88;60.63;74164.78;5033797;28;20049;-85
2022/09/07 10:59:24;;;;;;;6.88;3.20;;;;;;;-148.88;60.13;74140.41;5033695;28;20029;-86
2022/09/07 11:02:12;;;;;;;4.53;3.90;;;;;;;-148.88;61.26;74150.56;5033413;28;20601;-86
2022/09/07 11:04:48;;;;;;;4.78;4.10;;;;;;;-148.88;60.91;74160.72;5033747;28;20029;-86
2022/09/07 11:07:25;;;;;;;5.50;4.50;;;;;;;-148.88;60.97;74154.63;5032097;28;20032;-87
2022/09/07 11:10:23;;;;;;;5.35;3.97;;;;;;;-148.88;60.00;74079.50;5033325;28;20427;-87
2022/09/07 11:12:53;;;;;;;5.68;4.07;;;;;;;-148.88;58.82;74042.94;5033378;28;20505;-86
2022/09/07 11:15:25;;;;;;;5.97;4.65;;;;;;;-148.88;59.10;74065.28;5031992;28;20579;-86
2022/09/07 11:17:56;;;;;;;7.05;5.50;;;;;;;-148.88;59.35;74077.47;5033196;28;20100;-86
2022/09/07 11:20:41;;;;;;;7.07;6.38;;;;;;;-148.88;57.81;74065.28;5033440;28;20037;-86
2022/09/07 11:23:25;;;;;;;7.80;7.00;;;;;;;-148.88;56.50;74030.75;5033122;28;20104;-86
2022/09/07 11:26:11;;;;;;;8.13;7.43;;;;;;;-148.88;56.25;74059.19;5032373;28;20056;-84
2022/09/07 11:28:59;;;;;;;8.50;7.70;;;;;;;-148.88;56.43;74006.41;5033333;28;20384;-86
2022/09/07 11:31:36;;;;;;;5.95;5.45;;;;;;;-148.88;55.16;73959.72;5031610;28;20048;-86